sensor_id;sensor_type;location;lat;lon;timestamp;P1;durP1;ratioP1;P2;durP2;ratioP2
9056;SDS011;4563;54.756;9.400;2023-04-24T00:01:34;4.40;;;3.93;;
9056;SDS011;4563;54.756;9.400;2023-04-24T00:04:03;4.50;;;4.13;;
9056;SDS011;4563;54.756;9.400;2023-04-24T00:06:30;5.10;;;4.70;;
9056;SDS011;4563;54.756;9.400;2023-04-24T00:08:59;4.80;;;4.50;;
9056;SDS011;4563;54.756;9.400;2023-04-24T00:11:26;5.30;;;4.87;;
9056;SDS011;4563;54.756;9.400;2023-04-24T00:13:53;6.90;;;5.33;;
9056;SDS011;4563;54.756;9.400;2023-04-24T00:16:19;5.33;;;4.83;;
9056;SDS011;4563;54.756;9.400;2023-04-24T00:18:46;6.57;;;4.70;;
9056;SDS011;4563;54.756;9.400;2023-04-24T00:21:15;5.10;;;4.60;;
9056;SDS011;4563;54.756;9.400;2023-04-24T00:23:42;5.47;;;4.97;;
9056;SDS011;4563;54.756;9.400;2023-04-24T00:26:09;5.37;;;4.87;;
9056;SDS011;4563;54.756;9.400;2023-04-24T00:28:36;8.17;;;5.73;;
9056;SDS011;4563;54.756;9.400;2023-04-24T00:31:03;5.83;;;4.90;;
9056;SDS011;4563;54.756;9.400;2023-04-24T00:33:30;5.43;;;4.93;;
9056;SDS011;4563;54.756;9.400;2023-04-24T00:35:57;5.33;;;4.90;;
9056;SDS011;4563;54.756;9.400;2023-04-24T00:38:27;8.43;;;4.97;;
9056;SDS011;4563;54.756;9.400;2023-04-24T00:40:53;5.40;;;4.93;;
9056;SDS011;4563;54.756;9.400;2023-04-24T00:43:20;6.77;;;3.97;;
9056;SDS011;4563;54.756;9.400;2023-04-24T00:45:47;6.17;;;4.50;;
9056;SDS011;4563;54.756;9.400;2023-04-24T00:48:14;5.10;;;4.60;;
9056;SDS011;4563;54.756;9.400;2023-04-24T00:50:41;5.03;;;4.57;;
9056;SDS011;4563;54.756;9.400;2023-04-24T00:53:08;5.00;;;4.50;;
9056;SDS011;4563;54.756;9.400;2023-04-24T00:55:36;5.50;;;5.10;;
9056;SDS011;4563;54.756;9.400;2023-04-24T00:58:03;6.10;;;5.03;;
9056;SDS011;4563;54.756;9.400;2023-04-24T01:00:30;5.07;;;4.27;;
9056;SDS011;4563;54.756;9.400;2023-04-24T01:02:58;5.00;;;4.10;;
9056;SDS011;4563;54.756;9.400;2023-04-24T01:05:27;4.87;;;4.40;;
9056;SDS011;4563;54.756;9.400;2023-04-24T01:07:54;4.17;;;3.87;;
9056;SDS011;4563;54.756;9.400;2023-04-24T01:10:22;4.60;;;4.10;;
9056;SDS011;4563;54.756;9.400;2023-04-24T01:12:51;6.27;;;4.20;;
9056;SDS011;4563;54.756;9.400;2023-04-24T01:15:18;4.60;;;4.30;;
9056;SDS011;4563;54.756;9.400;2023-04-24T01:17:45;6.17;;;4.63;;
9056;SDS011;4563;54.756;9.400;2023-04-24T01:20:12;9.50;;;4.80;;
9056;SDS011;4563;54.756;9.400;2023-04-24T01:22:42;5.90;;;4.70;;
9056;SDS011;4563;54.756;9.400;2023-04-24T01:25:08;6.00;;;4.80;;
9056;SDS011;4563;54.756;9.400;2023-04-24T01:27:35;9.43;;;5.37;;
9056;SDS011;4563;54.756;9.400;2023-04-24T01:30:04;7.50;;;4.83;;
9056;SDS011;4563;54.756;9.400;2023-04-24T01:32:32;4.73;;;4.33;;
9056;SDS011;4563;54.756;9.400;2023-04-24T01:34:59;7.50;;;5.20;;
9056;SDS011;4563;54.756;9.400;2023-04-24T01:37:26;5.17;;;4.67;;
9056;SDS011;4563;54.756;9.400;2023-04-24T01:39:54;5.23;;;4.77;;
9056;SDS011;4563;54.756;9.400;2023-04-24T01:42:21;4.87;;;4.37;;
9056;SDS011;4563;54.756;9.400;2023-04-24T01:44:48;5.20;;;4.73;;
9056;SDS011;4563;54.756;9.400;2023-04-24T01:47:16;6.00;;;4.83;;
9056;SDS011;4563;54.756;9.400;2023-04-24T01:49:43;5.37;;;4.87;;
9056;SDS011;4563;54.756;9.400;2023-04-24T01:52:11;6.17;;;5.13;;
9056;SDS011;4563;54.756;9.400;2023-04-24T01:54:38;5.20;;;4.70;;
9056;SDS011;4563;54.756;9.400;2023-04-24T01:57:06;5.17;;;4.77;;
9056;SDS011;4563;54.756;9.400;2023-04-24T01:59:33;4.37;;;3.97;;
9056;SDS011;4563;54.756;9.400;2023-04-24T02:02:01;6.87;;;4.70;;
9056;SDS011;4563;54.756;9.400;2023-04-24T02:04:28;5.43;;;4.93;;
9056;SDS011;4563;54.756;9.400;2023-04-24T02:06:55;5.70;;;4.27;;
9056;SDS011;4563;54.756;9.400;2023-04-24T02:09:22;5.03;;;4.63;;
9056;SDS011;4563;54.756;9.400;2023-04-24T02:11:48;4.80;;;4.50;;
9056;SDS011;4563;54.756;9.400;2023-04-24T02:14:17;4.97;;;4.47;;
9056;SDS011;4563;54.756;9.400;2023-04-24T02:16:44;5.17;;;4.77;;
9056;SDS011;4563;54.756;9.400;2023-04-24T02:19:10;4.43;;;4.13;;
9056;SDS011;4563;54.756;9.400;2023-04-24T02:21:37;7.60;;;5.03;;
9056;SDS011;4563;54.756;9.400;2023-04-24T02:24:04;4.67;;;4.37;;
9056;SDS011;4563;54.756;9.400;2023-04-24T02:26:31;5.27;;;4.77;;
9056;SDS011;4563;54.756;9.400;2023-04-24T02:28:58;5.87;;;5.10;;
9056;SDS011;4563;54.756;9.400;2023-04-24T02:31:26;5.90;;;5.40;;
9056;SDS011;4563;54.756;9.400;2023-04-24T02:33:53;5.40;;;4.90;;
9056;SDS011;4563;54.756;9.400;2023-04-24T02:36:21;5.40;;;4.97;;
9056;SDS011;4563;54.756;9.400;2023-04-24T02:38:47;5.33;;;4.90;;
9056;SDS011;4563;54.756;9.400;2023-04-24T02:41:14;7.87;;;5.17;;
9056;SDS011;4563;54.756;9.400;2023-04-24T02:43:41;6.20;;;5.00;;
9056;SDS011;4563;54.756;9.400;2023-04-24T02:46:08;5.57;;;5.07;;
9056;SDS011;4563;54.756;9.400;2023-04-24T02:48:36;5.97;;;5.47;;
9056;SDS011;4563;54.756;9.400;2023-04-24T02:51:03;5.97;;;5.47;;
9056;SDS011;4563;54.756;9.400;2023-04-24T02:53:30;7.17;;;5.40;;
9056;SDS011;4563;54.756;9.400;2023-04-24T02:55:56;6.20;;;5.70;;
9056;SDS011;4563;54.756;9.400;2023-04-24T02:58:23;6.37;;;5.87;;
9056;SDS011;4563;54.756;9.400;2023-04-24T03:00:52;6.23;;;5.63;;
9056;SDS011;4563;54.756;9.400;2023-04-24T03:03:21;5.93;;;5.53;;
9056;SDS011;4563;54.756;9.400;2023-04-24T03:05:50;6.83;;;6.10;;
9056;SDS011;4563;54.756;9.400;2023-04-24T03:08:16;6.60;;;5.93;;
9056;SDS011;4563;54.756;9.400;2023-04-24T03:10:43;5.93;;;5.43;;
9056;SDS011;4563;54.756;9.400;2023-04-24T03:13:10;6.13;;;5.63;;
9056;SDS011;4563;54.756;9.400;2023-04-24T03:15:37;5.37;;;4.97;;
9056;SDS011;4563;54.756;9.400;2023-04-24T03:18:04;5.70;;;5.07;;
9056;SDS011;4563;54.756;9.400;2023-04-24T03:20:32;5.70;;;5.20;;
9056;SDS011;4563;54.756;9.400;2023-04-24T03:23:01;5.70;;;5.20;;
9056;SDS011;4563;54.756;9.400;2023-04-24T03:25:30;5.80;;;5.33;;
9056;SDS011;4563;54.756;9.400;2023-04-24T03:27:57;5.60;;;5.10;;
9056;SDS011;4563;54.756;9.400;2023-04-24T03:30:24;5.37;;;4.90;;
9056;SDS011;4563;54.756;9.400;2023-04-24T03:32:51;9.10;;;5.13;;
9056;SDS011;4563;54.756;9.400;2023-04-24T03:35:17;4.87;;;4.50;;
9056;SDS011;4563;54.756;9.400;2023-04-24T03:37:44;6.50;;;4.50;;
9056;SDS011;4563;54.756;9.400;2023-04-24T03:40:12;4.83;;;4.53;;
9056;SDS011;4563;54.756;9.400;2023-04-24T03:42:39;6.17;;;4.63;;
9056;SDS011;4563;54.756;9.400;2023-04-24T03:45:07;5.33;;;5.00;;
9056;SDS011;4563;54.756;9.400;2023-04-24T03:47:34;5.53;;;4.87;;
9056;SDS011;4563;54.756;9.400;2023-04-24T03:50:01;5.80;;;5.17;;
9056;SDS011;4563;54.756;9.400;2023-04-24T03:52:28;4.77;;;4.37;;
9056;SDS011;4563;54.756;9.400;2023-04-24T03:54:55;5.63;;;5.13;;
9056;SDS011;4563;54.756;9.400;2023-04-24T03:57:23;5.40;;;4.90;;
9056;SDS011;4563;54.756;9.400;2023-04-24T03:59:50;5.57;;;5.07;;
9056;SDS011;4563;54.756;9.400;2023-04-24T04:02:18;4.83;;;4.53;;
9056;SDS011;4563;54.756;9.400;2023-04-24T04:04:45;5.43;;;4.90;;
9056;SDS011;4563;54.756;9.400;2023-04-24T04:07:12;4.73;;;4.43;;
9056;SDS011;4563;54.756;9.400;2023-04-24T04:09:39;4.60;;;4.20;;
9056;SDS011;4563;54.756;9.400;2023-04-24T04:12:05;4.50;;;4.20;;
9056;SDS011;4563;54.756;9.400;2023-04-24T04:14:33;3.97;;;3.67;;
9056;SDS011;4563;54.756;9.400;2023-04-24T04:17:00;5.10;;;4.70;;
9056;SDS011;4563;54.756;9.400;2023-04-24T04:19:27;7.17;;;3.50;;
9056;SDS011;4563;54.756;9.400;2023-04-24T04:21:54;3.80;;;3.60;;
9056;SDS011;4563;54.756;9.400;2023-04-24T04:24:21;3.97;;;3.67;;
9056;SDS011;4563;54.756;9.400;2023-04-24T04:26:49;4.40;;;4.10;;
9056;SDS011;4563;54.756;9.400;2023-04-24T04:29:16;4.30;;;4.03;;
9056;SDS011;4563;54.756;9.400;2023-04-24T04:31:45;4.50;;;4.20;;
9056;SDS011;4563;54.756;9.400;2023-04-24T04:34:12;4.47;;;4.17;;
9056;SDS011;4563;54.756;9.400;2023-04-24T04:36:39;4.73;;;4.43;;
9056;SDS011;4563;54.756;9.400;2023-04-24T04:39:06;4.93;;;4.63;;
9056;SDS011;4563;54.756;9.400;2023-04-24T04:41:33;4.03;;;3.73;;
9056;SDS011;4563;54.756;9.400;2023-04-24T04:44:00;4.13;;;3.83;;
9056;SDS011;4563;54.756;9.400;2023-04-24T04:46:29;4.97;;;4.47;;
9056;SDS011;4563;54.756;9.400;2023-04-24T04:48:59;5.03;;;4.63;;
9056;SDS011;4563;54.756;9.400;2023-04-24T04:51:26;4.70;;;4.40;;
9056;SDS011;4563;54.756;9.400;2023-04-24T04:53:53;3.73;;;3.43;;
9056;SDS011;4563;54.756;9.400;2023-04-24T04:56:20;3.43;;;3.13;;
9056;SDS011;4563;54.756;9.400;2023-04-24T04:58:46;2.00;;;1.90;;
9056;SDS011;4563;54.756;9.400;2023-04-24T05:01:13;1.53;;;1.47;;
9056;SDS011;4563;54.756;9.400;2023-04-24T05:03:40;1.40;;;1.40;;
9056;SDS011;4563;54.756;9.400;2023-04-24T05:06:08;1.10;;;1.10;;
9056;SDS011;4563;54.756;9.400;2023-04-24T05:08:35;1.03;;;1.03;;
9056;SDS011;4563;54.756;9.400;2023-04-24T05:11:02;0.70;;;0.70;;
9056;SDS011;4563;54.756;9.400;2023-04-24T05:13:29;0.70;;;0.70;;
9056;SDS011;4563;54.756;9.400;2023-04-24T05:15:59;3.00;;;2.80;;
9056;SDS011;4563;54.756;9.400;2023-04-24T05:18:26;0.90;;;0.90;;
9056;SDS011;4563;54.756;9.400;2023-04-24T05:20:52;0.80;;;0.80;;
9056;SDS011;4563;54.756;9.400;2023-04-24T05:23:21;0.83;;;0.83;;
9056;SDS011;4563;54.756;9.400;2023-04-24T05:25:48;0.77;;;0.77;;
9056;SDS011;4563;54.756;9.400;2023-04-24T05:28:14;0.90;;;0.90;;
9056;SDS011;4563;54.756;9.400;2023-04-24T05:30:41;1.07;;;1.07;;
9056;SDS011;4563;54.756;9.400;2023-04-24T05:33:08;0.87;;;0.87;;
9056;SDS011;4563;54.756;9.400;2023-04-24T05:35:35;0.60;;;0.60;;
9056;SDS011;4563;54.756;9.400;2023-04-24T05:38:02;0.80;;;0.80;;
9056;SDS011;4563;54.756;9.400;2023-04-24T05:40:30;1.07;;;0.97;;
9056;SDS011;4563;54.756;9.400;2023-04-24T05:42:57;0.67;;;0.67;;
9056;SDS011;4563;54.756;9.400;2023-04-24T05:45:24;1.13;;;1.03;;
9056;SDS011;4563;54.756;9.400;2023-04-24T05:47:50;0.80;;;0.80;;
9056;SDS011;4563;54.756;9.400;2023-04-24T05:50:17;0.73;;;0.70;;
9056;SDS011;4563;54.756;9.400;2023-04-24T05:52:44;0.87;;;0.83;;
9056;SDS011;4563;54.756;9.400;2023-04-24T05:55:11;0.80;;;0.80;;
9056;SDS011;4563;54.756;9.400;2023-04-24T05:57:40;0.90;;;0.90;;
9056;SDS011;4563;54.756;9.400;2023-04-24T06:00:07;2.60;;;0.90;;
9056;SDS011;4563;54.756;9.400;2023-04-24T06:02:39;2.10;;;1.10;;
9056;SDS011;4563;54.756;9.400;2023-04-24T06:05:06;1.30;;;1.30;;
9056;SDS011;4563;54.756;9.400;2023-04-24T06:07:36;1.37;;;1.27;;
9056;SDS011;4563;54.756;9.400;2023-04-24T06:10:04;1.17;;;1.07;;
9056;SDS011;4563;54.756;9.400;2023-04-24T06:12:32;1.00;;;0.90;;
9056;SDS011;4563;54.756;9.400;2023-04-24T06:15:00;1.00;;;1.00;;
9056;SDS011;4563;54.756;9.400;2023-04-24T06:17:27;1.03;;;1.00;;
9056;SDS011;4563;54.756;9.400;2023-04-24T06:19:54;2.00;;;1.30;;
9056;SDS011;4563;54.756;9.400;2023-04-24T06:22:21;1.43;;;1.33;;
9056;SDS011;4563;54.756;9.400;2023-04-24T06:24:48;1.40;;;1.30;;
9056;SDS011;4563;54.756;9.400;2023-04-24T06:27:14;1.40;;;1.30;;
9056;SDS011;4563;54.756;9.400;2023-04-24T06:29:41;2.73;;;1.53;;
9056;SDS011;4563;54.756;9.400;2023-04-24T06:32:09;2.23;;;1.50;;
9056;SDS011;4563;54.756;9.400;2023-04-24T06:34:36;1.40;;;1.30;;
9056;SDS011;4563;54.756;9.400;2023-04-24T06:37:03;1.20;;;1.20;;
9056;SDS011;4563;54.756;9.400;2023-04-24T06:39:30;1.87;;;1.77;;
9056;SDS011;4563;54.756;9.400;2023-04-24T06:41:57;1.57;;;1.47;;
9056;SDS011;4563;54.756;9.400;2023-04-24T06:44:24;2.90;;;1.90;;
9056;SDS011;4563;54.756;9.400;2023-04-24T06:46:51;2.30;;;2.20;;
9056;SDS011;4563;54.756;9.400;2023-04-24T06:49:20;3.10;;;2.87;;
9056;SDS011;4563;54.756;9.400;2023-04-24T06:51:47;2.37;;;2.17;;
9056;SDS011;4563;54.756;9.400;2023-04-24T06:54:14;2.30;;;2.20;;
9056;SDS011;4563;54.756;9.400;2023-04-24T06:56:40;2.83;;;2.73;;
9056;SDS011;4563;54.756;9.400;2023-04-24T06:59:07;3.27;;;3.07;;
9056;SDS011;4563;54.756;9.400;2023-04-24T07:01:35;2.70;;;2.53;;
9056;SDS011;4563;54.756;9.400;2023-04-24T07:04:02;3.60;;;2.97;;
9056;SDS011;4563;54.756;9.400;2023-04-24T07:06:30;2.50;;;2.40;;
9056;SDS011;4563;54.756;9.400;2023-04-24T07:08:57;3.40;;;3.20;;
9056;SDS011;4563;54.756;9.400;2023-04-24T07:11:25;3.03;;;2.93;;
9056;SDS011;4563;54.756;9.400;2023-04-24T07:13:54;2.50;;;2.40;;
9056;SDS011;4563;54.756;9.400;2023-04-24T07:16:21;2.13;;;2.03;;
9056;SDS011;4563;54.756;9.400;2023-04-24T07:18:48;2.83;;;2.63;;
9056;SDS011;4563;54.756;9.400;2023-04-24T07:21:15;3.03;;;2.93;;
9056;SDS011;4563;54.756;9.400;2023-04-24T07:23:43;3.20;;;2.60;;
9056;SDS011;4563;54.756;9.400;2023-04-24T07:26:10;3.70;;;3.40;;
9056;SDS011;4563;54.756;9.400;2023-04-24T07:28:37;2.43;;;2.33;;
9056;SDS011;4563;54.756;9.400;2023-04-24T07:31:04;2.73;;;2.53;;
9056;SDS011;4563;54.756;9.400;2023-04-24T07:33:31;2.10;;;2.00;;
9056;SDS011;4563;54.756;9.400;2023-04-24T07:35:58;2.30;;;2.20;;
9056;SDS011;4563;54.756;9.400;2023-04-24T07:38:28;1.50;;;1.50;;
9056;SDS011;4563;54.756;9.400;2023-04-24T07:40:57;1.60;;;1.50;;
9056;SDS011;4563;54.756;9.400;2023-04-24T07:43:24;1.57;;;1.50;;
9056;SDS011;4563;54.756;9.400;2023-04-24T07:45:51;1.63;;;1.30;;
9056;SDS011;4563;54.756;9.400;2023-04-24T07:48:19;1.57;;;1.30;;
9056;SDS011;4563;54.756;9.400;2023-04-24T07:50:47;1.20;;;1.17;;
9056;SDS011;4563;54.756;9.400;2023-04-24T07:53:13;1.43;;;1.30;;
9056;SDS011;4563;54.756;9.400;2023-04-24T07:55:40;1.40;;;1.30;;
9056;SDS011;4563;54.756;9.400;2023-04-24T07:58:08;2.40;;;1.30;;
9056;SDS011;4563;54.756;9.400;2023-04-24T08:00:37;1.77;;;1.67;;
9056;SDS011;4563;54.756;9.400;2023-04-24T08:03:04;2.87;;;1.87;;
9056;SDS011;4563;54.756;9.400;2023-04-24T08:05:33;1.50;;;1.40;;
9056;SDS011;4563;54.756;9.400;2023-04-24T08:08:00;2.30;;;1.60;;
9056;SDS011;4563;54.756;9.400;2023-04-24T08:10:27;1.67;;;1.57;;
9056;SDS011;4563;54.756;9.400;2023-04-24T08:12:54;1.97;;;1.80;;
9056;SDS011;4563;54.756;9.400;2023-04-24T08:15:22;1.93;;;1.77;;
9056;SDS011;4563;54.756;9.400;2023-04-24T08:17:49;2.00;;;1.90;;
9056;SDS011;4563;54.756;9.400;2023-04-24T08:20:17;2.13;;;2.03;;
9056;SDS011;4563;54.756;9.400;2023-04-24T08:22:43;2.77;;;2.50;;
9056;SDS011;4563;54.756;9.400;2023-04-24T08:25:12;2.40;;;2.30;;
9056;SDS011;4563;54.756;9.400;2023-04-24T08:27:39;2.00;;;1.90;;
9056;SDS011;4563;54.756;9.400;2023-04-24T08:30:06;1.97;;;1.87;;
9056;SDS011;4563;54.756;9.400;2023-04-24T08:32:35;1.83;;;1.73;;
9056;SDS011;4563;54.756;9.400;2023-04-24T08:35:02;1.80;;;1.70;;
9056;SDS011;4563;54.756;9.400;2023-04-24T08:37:29;1.60;;;1.50;;
9056;SDS011;4563;54.756;9.400;2023-04-24T08:39:56;6.23;;;1.87;;
9056;SDS011;4563;54.756;9.400;2023-04-24T08:42:23;1.90;;;1.70;;
9056;SDS011;4563;54.756;9.400;2023-04-24T08:44:50;1.90;;;1.70;;
9056;SDS011;4563;54.756;9.400;2023-04-24T08:47:17;2.53;;;1.63;;
9056;SDS011;4563;54.756;9.400;2023-04-24T08:49:47;1.70;;;1.60;;
9056;SDS011;4563;54.756;9.400;2023-04-24T08:52:16;1.20;;;1.10;;
9056;SDS011;4563;54.756;9.400;2023-04-24T08:54:47;2.40;;;1.37;;
9056;SDS011;4563;54.756;9.400;2023-04-24T08:57:14;1.10;;;1.10;;
9056;SDS011;4563;54.756;9.400;2023-04-24T08:59:42;1.47;;;1.37;;
9056;SDS011;4563;54.756;9.400;2023-04-24T09:02:10;1.23;;;1.23;;
9056;SDS011;4563;54.756;9.400;2023-04-24T09:04:38;1.20;;;1.20;;
9056;SDS011;4563;54.756;9.400;2023-04-24T09:07:07;1.60;;;1.40;;
9056;SDS011;4563;54.756;9.400;2023-04-24T09:09:38;1.80;;;1.20;;
9056;SDS011;4563;54.756;9.400;2023-04-24T09:12:05;1.60;;;1.50;;
9056;SDS011;4563;54.756;9.400;2023-04-24T09:14:35;1.50;;;1.50;;
9056;SDS011;4563;54.756;9.400;2023-04-24T09:17:04;4.23;;;2.00;;
9056;SDS011;4563;54.756;9.400;2023-04-24T09:19:32;1.87;;;1.77;;
9056;SDS011;4563;54.756;9.400;2023-04-24T09:21:58;3.07;;;1.90;;
9056;SDS011;4563;54.756;9.400;2023-04-24T09:24:27;2.57;;;2.17;;
9056;SDS011;4563;54.756;9.400;2023-04-24T09:26:56;3.30;;;2.10;;
9056;SDS011;4563;54.756;9.400;2023-04-24T09:29:24;2.73;;;2.53;;
9056;SDS011;4563;54.756;9.400;2023-04-24T09:31:51;2.20;;;2.10;;
9056;SDS011;4563;54.756;9.400;2023-04-24T09:34:20;2.20;;;2.07;;
9056;SDS011;4563;54.756;9.400;2023-04-24T09:36:48;4.03;;;2.40;;
9056;SDS011;4563;54.756;9.400;2023-04-24T09:39:15;2.50;;;2.30;;
9056;SDS011;4563;54.756;9.400;2023-04-24T09:41:47;2.50;;;2.30;;
9056;SDS011;4563;54.756;9.400;2023-04-24T09:44:15;2.67;;;2.47;;
9056;SDS011;4563;54.756;9.400;2023-04-24T09:46:44;4.10;;;2.40;;
9056;SDS011;4563;54.756;9.400;2023-04-24T09:49:15;1.93;;;1.83;;
9056;SDS011;4563;54.756;9.400;2023-04-24T09:51:42;2.10;;;2.00;;
9056;SDS011;4563;54.756;9.400;2023-04-24T09:54:13;1.90;;;1.80;;
9056;SDS011;4563;54.756;9.400;2023-04-24T09:56:42;1.73;;;1.63;;
9056;SDS011;4563;54.756;9.400;2023-04-24T09:59:12;1.50;;;1.40;;
9056;SDS011;4563;54.756;9.400;2023-04-24T10:01:40;2.63;;;1.80;;
9056;SDS011;4563;54.756;9.400;2023-04-24T10:04:18;1.47;;;1.43;;
9056;SDS011;4563;54.756;9.400;2023-04-24T10:06:48;1.30;;;1.20;;
9056;SDS011;4563;54.756;9.400;2023-04-24T10:09:15;1.10;;;1.10;;
9056;SDS011;4563;54.756;9.400;2023-04-24T10:11:44;1.10;;;1.10;;
9056;SDS011;4563;54.756;9.400;2023-04-24T10:14:14;0.97;;;0.93;;
9056;SDS011;4563;54.756;9.400;2023-04-24T10:16:42;1.47;;;1.40;;
9056;SDS011;4563;54.756;9.400;2023-04-24T10:19:11;1.77;;;1.10;;
9056;SDS011;4563;54.756;9.400;2023-04-24T10:21:39;1.00;;;1.00;;
9056;SDS011;4563;54.756;9.400;2023-04-24T10:24:11;1.10;;;1.10;;
9056;SDS011;4563;54.756;9.400;2023-04-24T10:26:38;1.13;;;1.03;;
9056;SDS011;4563;54.756;9.400;2023-04-24T10:29:07;1.20;;;1.10;;
9056;SDS011;4563;54.756;9.400;2023-04-24T10:31:39;2.10;;;1.43;;
9056;SDS011;4563;54.756;9.400;2023-04-24T10:34:06;1.40;;;1.30;;
9056;SDS011;4563;54.756;9.400;2023-04-24T10:36:35;2.17;;;1.73;;
9056;SDS011;4563;54.756;9.400;2023-04-24T10:39:07;2.37;;;1.70;;
9056;SDS011;4563;54.756;9.400;2023-04-24T10:41:37;2.63;;;2.03;;
9056;SDS011;4563;54.756;9.400;2023-04-24T10:44:06;2.07;;;1.97;;
9056;SDS011;4563;54.756;9.400;2023-04-24T10:46:33;1.63;;;1.53;;
9056;SDS011;4563;54.756;9.400;2023-04-24T10:49:04;1.90;;;1.80;;
9056;SDS011;4563;54.756;9.400;2023-04-24T10:51:44;1.70;;;1.63;;
9056;SDS011;4563;54.756;9.400;2023-04-24T10:54:22;2.47;;;1.47;;
9056;SDS011;4563;54.756;9.400;2023-04-24T10:56:50;1.83;;;1.70;;
9056;SDS011;4563;54.756;9.400;2023-04-24T10:59:23;1.67;;;1.57;;
9056;SDS011;4563;54.756;9.400;2023-04-24T11:01:53;1.50;;;1.40;;
9056;SDS011;4563;54.756;9.400;2023-04-24T11:04:30;1.93;;;1.83;;
9056;SDS011;4563;54.756;9.400;2023-04-24T11:06:57;1.23;;;1.20;;
9056;SDS011;4563;54.756;9.400;2023-04-24T11:09:26;2.73;;;1.50;;
9056;SDS011;4563;54.756;9.400;2023-04-24T11:12:02;1.30;;;1.30;;
9056;SDS011;4563;54.756;9.400;2023-04-24T11:14:31;1.33;;;1.10;;
9056;SDS011;4563;54.756;9.400;2023-04-24T11:17:30;3.07;;;1.40;;
9056;SDS011;4563;54.756;9.400;2023-04-24T11:20:02;1.17;;;1.17;;
9056;SDS011;4563;54.756;9.400;2023-04-24T11:22:32;0.93;;;0.93;;
9056;SDS011;4563;54.756;9.400;2023-04-24T11:25:01;1.70;;;1.07;;
9056;SDS011;4563;54.756;9.400;2023-04-24T11:27:29;1.80;;;1.20;;
9056;SDS011;4563;54.756;9.400;2023-04-24T11:29:59;1.20;;;1.03;;
9056;SDS011;4563;54.756;9.400;2023-04-24T11:32:27;1.43;;;1.00;;
9056;SDS011;4563;54.756;9.400;2023-04-24T11:34:55;1.30;;;0.90;;
9056;SDS011;4563;54.756;9.400;2023-04-24T11:37:27;1.67;;;0.93;;
9056;SDS011;4563;54.756;9.400;2023-04-24T11:39:58;0.83;;;0.83;;
9056;SDS011;4563;54.756;9.400;2023-04-24T11:42:29;1.70;;;1.07;;
9056;SDS011;4563;54.756;9.400;2023-04-24T11:45:00;0.90;;;0.90;;
9056;SDS011;4563;54.756;9.400;2023-04-24T11:47:28;1.30;;;1.00;;
9056;SDS011;4563;54.756;9.400;2023-04-24T11:49:55;1.13;;;0.80;;
9056;SDS011;4563;54.756;9.400;2023-04-24T11:52:22;1.23;;;1.17;;
9056;SDS011;4563;54.756;9.400;2023-04-24T11:54:50;1.03;;;0.90;;
9056;SDS011;4563;54.756;9.400;2023-04-24T11:57:18;1.37;;;1.00;;
9056;SDS011;4563;54.756;9.400;2023-04-24T11:59:47;0.90;;;0.90;;
9056;SDS011;4563;54.756;9.400;2023-04-24T12:02:20;0.90;;;0.90;;
9056;SDS011;4563;54.756;9.400;2023-04-24T12:04:48;1.00;;;1.00;;
9056;SDS011;4563;54.756;9.400;2023-04-24T12:07:15;1.47;;;1.00;;
9056;SDS011;4563;54.756;9.400;2023-04-24T12:09:42;2.50;;;1.30;;
9056;SDS011;4563;54.756;9.400;2023-04-24T12:12:12;1.30;;;1.20;;
9056;SDS011;4563;54.756;9.400;2023-04-24T12:14:47;1.10;;;1.10;;
9056;SDS011;4563;54.756;9.400;2023-04-24T12:17:15;1.17;;;1.17;;
9056;SDS011;4563;54.756;9.400;2023-04-24T12:19:46;1.63;;;0.93;;
9056;SDS011;4563;54.756;9.400;2023-04-24T12:22:13;0.90;;;0.90;;
9056;SDS011;4563;54.756;9.400;2023-04-24T12:24:56;0.90;;;0.90;;
9056;SDS011;4563;54.756;9.400;2023-04-24T12:27:30;1.10;;;1.10;;
9056;SDS011;4563;54.756;9.400;2023-04-24T12:29:58;1.00;;;1.00;;
9056;SDS011;4563;54.756;9.400;2023-04-24T12:32:26;0.90;;;0.90;;
9056;SDS011;4563;54.756;9.400;2023-04-24T12:34:54;1.50;;;0.80;;
9056;SDS011;4563;54.756;9.400;2023-04-24T12:37:22;3.40;;;0.97;;
9056;SDS011;4563;54.756;9.400;2023-04-24T12:40:00;1.30;;;1.17;;
9056;SDS011;4563;54.756;9.400;2023-04-24T12:42:29;1.63;;;1.50;;
9056;SDS011;4563;54.756;9.400;2023-04-24T12:44:57;3.80;;;1.83;;
9056;SDS011;4563;54.756;9.400;2023-04-24T12:47:26;2.60;;;2.23;;
9056;SDS011;4563;54.756;9.400;2023-04-24T12:49:53;2.47;;;2.30;;
9056;SDS011;4563;54.756;9.400;2023-04-24T12:52:20;6.27;;;2.20;;
9056;SDS011;4563;54.756;9.400;2023-04-24T12:54:48;3.17;;;2.47;;
9056;SDS011;4563;54.756;9.400;2023-04-24T12:57:15;7.30;;;6.57;;
9056;SDS011;4563;54.756;9.400;2023-04-24T12:59:44;4.33;;;2.87;;
9056;SDS011;4563;54.756;9.400;2023-04-24T13:02:12;3.77;;;2.73;;
9056;SDS011;4563;54.756;9.400;2023-04-24T13:04:42;3.00;;;2.03;;
9056;SDS011;4563;54.756;9.400;2023-04-24T13:07:10;3.17;;;2.10;;
9056;SDS011;4563;54.756;9.400;2023-04-24T13:09:37;2.40;;;1.90;;
9056;SDS011;4563;54.756;9.400;2023-04-24T13:12:04;3.50;;;1.97;;
9056;SDS011;4563;54.756;9.400;2023-04-24T13:14:32;2.10;;;1.90;;
9056;SDS011;4563;54.756;9.400;2023-04-24T13:17:00;2.23;;;2.03;;
9056;SDS011;4563;54.756;9.400;2023-04-24T13:19:27;5.50;;;1.77;;
9056;SDS011;4563;54.756;9.400;2023-04-24T13:21:56;2.97;;;2.00;;
9056;SDS011;4563;54.756;9.400;2023-04-24T13:24:24;2.00;;;1.90;;
9056;SDS011;4563;54.756;9.400;2023-04-24T13:26:54;4.97;;;2.40;;
9056;SDS011;4563;54.756;9.400;2023-04-24T13:29:22;1.90;;;1.80;;
9056;SDS011;4563;54.756;9.400;2023-04-24T13:31:50;4.43;;;2.33;;
9056;SDS011;4563;54.756;9.400;2023-04-24T13:34:20;1.80;;;1.70;;
9056;SDS011;4563;54.756;9.400;2023-04-24T13:36:47;4.47;;;2.07;;
9056;SDS011;4563;54.756;9.400;2023-04-24T13:39:15;2.90;;;2.13;;
9056;SDS011;4563;54.756;9.400;2023-04-24T13:41:42;3.30;;;2.00;;
9056;SDS011;4563;54.756;9.400;2023-04-24T13:44:12;1.77;;;1.70;;
9056;SDS011;4563;54.756;9.400;2023-04-24T13:46:40;2.07;;;1.97;;
9056;SDS011;4563;54.756;9.400;2023-04-24T13:49:07;2.87;;;2.00;;
9056;SDS011;4563;54.756;9.400;2023-04-24T13:51:36;1.80;;;1.70;;
9056;SDS011;4563;54.756;9.400;2023-04-24T13:54:02;2.17;;;1.67;;
9056;SDS011;4563;54.756;9.400;2023-04-24T13:56:29;2.50;;;2.03;;
9056;SDS011;4563;54.756;9.400;2023-04-24T13:59:07;2.07;;;1.40;;
9056;SDS011;4563;54.756;9.400;2023-04-24T14:01:40;0.77;;;0.77;;
9056;SDS011;4563;54.756;9.400;2023-04-24T14:04:11;3.07;;;1.10;;
9056;SDS011;4563;54.756;9.400;2023-04-24T14:06:39;3.33;;;3.03;;
9056;SDS011;4563;54.756;9.400;2023-04-24T14:09:09;3.33;;;1.00;;
9056;SDS011;4563;54.756;9.400;2023-04-24T14:11:42;1.80;;;0.80;;
9056;SDS011;4563;54.756;9.400;2023-04-24T14:14:12;2.40;;;1.00;;
9056;SDS011;4563;54.756;9.400;2023-04-24T14:16:39;2.20;;;0.80;;
9056;SDS011;4563;54.756;9.400;2023-04-24T14:19:07;5.57;;;1.70;;
9056;SDS011;4563;54.756;9.400;2023-04-24T14:21:35;0.80;;;0.80;;
9056;SDS011;4563;54.756;9.400;2023-04-24T14:24:04;2.40;;;0.90;;
9056;SDS011;4563;54.756;9.400;2023-04-24T14:26:43;1.83;;;1.03;;
9056;SDS011;4563;54.756;9.400;2023-04-24T14:29:34;3.23;;;0.77;;
9056;SDS011;4563;54.756;9.400;2023-04-24T14:32:06;3.37;;;1.10;;
9056;SDS011;4563;54.756;9.400;2023-04-24T14:34:34;4.10;;;1.20;;
9056;SDS011;4563;54.756;9.400;2023-04-24T14:37:01;2.03;;;0.87;;
9056;SDS011;4563;54.756;9.400;2023-04-24T14:39:39;2.20;;;1.10;;
9056;SDS011;4563;54.756;9.400;2023-04-24T14:42:06;3.07;;;1.10;;
9056;SDS011;4563;54.756;9.400;2023-04-24T14:44:34;1.30;;;1.20;;
9056;SDS011;4563;54.756;9.400;2023-04-24T14:47:01;1.83;;;1.23;;
9056;SDS011;4563;54.756;9.400;2023-04-24T14:49:28;2.20;;;1.57;;
9056;SDS011;4563;54.756;9.400;2023-04-24T14:51:54;2.67;;;2.47;;
9056;SDS011;4563;54.756;9.400;2023-04-24T14:54:21;5.17;;;2.13;;
9056;SDS011;4563;54.756;9.400;2023-04-24T14:56:50;3.57;;;2.87;;
9056;SDS011;4563;54.756;9.400;2023-04-24T14:59:17;2.57;;;2.37;;
9056;SDS011;4563;54.756;9.400;2023-04-24T15:01:44;4.77;;;2.30;;
9056;SDS011;4563;54.756;9.400;2023-04-24T15:04:11;2.90;;;2.63;;
9056;SDS011;4563;54.756;9.400;2023-04-24T15:06:38;5.13;;;3.00;;
9056;SDS011;4563;54.756;9.400;2023-04-24T15:09:04;3.73;;;2.67;;
9056;SDS011;4563;54.756;9.400;2023-04-24T15:11:31;3.83;;;2.73;;
9056;SDS011;4563;54.756;9.400;2023-04-24T15:14:00;9.40;;;3.30;;
9056;SDS011;4563;54.756;9.400;2023-04-24T15:16:27;4.60;;;3.23;;
9056;SDS011;4563;54.756;9.400;2023-04-24T15:18:56;6.20;;;3.30;;
9056;SDS011;4563;54.756;9.400;2023-04-24T15:21:28;5.90;;;3.23;;